Southwest Georgia Regional Airport
KABY : now visible

Airfield :











YOU CAN JOIN US ON...

 
LOGIN :

Register | Disclaimer

   EN    FR    IT 

 









Legend :    VFR   Marginal VFR   IFR   Intensive IFR   Very Intensive IFR
Visi :
Ceiling :
>= 8 km
>= 3000ft
5 to 8 km
1000 to 3000 ft
1500m to 5 km
500 to 1000 ft
800 to 1500m
200 to 500 ft
< 800m
< 200 ft
Symbols :   Thunderstorms  Fog  Heavy snow  Heavy precipitations  Wind > 20 kt






- Airport Elevation : 197 ft
- IATA code : ABY


KABY - Southwest Georgia Regional

CURRENT METAR :
  • 061153Z 00000KT 10SM OVC100 24/22 A3002 RMK AO2 SLP164 T02440222 10244 20228 51010

EXPIRED METARs :
  • 061053Z AUTO 33003KT 10SM OVC095 23/22 A3002 RMK AO2 SLP163 T02330217
  • 060953Z AUTO 34003KT 10SM CLR 23/22 A3001 RMK AO2 SLP159 T02330217

TAF KABY
Valid from the 06 at 12:00 until the 07 at 12:00 UTC


061120Z 0612/0712 16004KT P6SM BKN100
FM062000 19008KT P6SM -SHRA BKN050
FM070200 16004KT P6SM BKN100
KZJX FIR / North America



MET'MAP, your aeronautical weather chart ! - Copyright ORBIFLY December 2007 - Disclaimer

ORBIFLY MET'MAP TEAM :

Programming & Development : Alexandra Zaïnal
Concept & original design : Baudouin d'Aumeries
Assistance for programming : Marc-Olivier Méhu
Technical & hardware support : Manuel Goepfert

Contact : metmap@orbifly.com




SOURCES & CREDITS :

   NOAA       Earth
Advisory